sensor_id;sensor_type;location;lat;lon;timestamp;P1;durP1;ratioP1;P2;durP2;ratioP2
25615;SDS011;13482;48.234;13.006;2023-04-03T00:01:19;2.22;;;1.48;;
25615;SDS011;13482;48.234;13.006;2023-04-03T00:03:47;2.20;;;1.40;;
25615;SDS011;13482;48.234;13.006;2023-04-03T00:06:14;2.70;;;1.80;;
25615;SDS011;13482;48.234;13.006;2023-04-03T00:08:41;2.22;;;1.58;;
25615;SDS011;13482;48.234;13.006;2023-04-03T00:11:08;2.20;;;1.40;;
25615;SDS011;13482;48.234;13.006;2023-04-03T00:13:36;2.10;;;1.70;;
25615;SDS011;13482;48.234;13.006;2023-04-03T00:16:04;2.50;;;1.63;;
25615;SDS011;13482;48.234;13.006;2023-04-03T00:18:34;2.35;;;1.60;;
25615;SDS011;13482;48.234;13.006;2023-04-03T00:21:02;2.40;;;1.83;;
25615;SDS011;13482;48.234;13.006;2023-04-03T00:23:30;2.40;;;1.63;;
25615;SDS011;13482;48.234;13.006;2023-04-03T00:25:57;2.00;;;1.48;;
25615;SDS011;13482;48.234;13.006;2023-04-03T00:28:24;2.45;;;1.67;;
25615;SDS011;13482;48.234;13.006;2023-04-03T00:30:53;2.70;;;1.80;;
25615;SDS011;13482;48.234;13.006;2023-04-03T00:33:20;2.30;;;1.88;;
25615;SDS011;13482;48.234;13.006;2023-04-03T00:35:51;2.75;;;1.73;;
25615;SDS011;13482;48.234;13.006;2023-04-03T00:38:18;1.98;;;1.45;;
25615;SDS011;13482;48.234;13.006;2023-04-03T00:40:46;2.05;;;1.42;;
25615;SDS011;13482;48.234;13.006;2023-04-03T00:43:22;2.58;;;1.70;;
25615;SDS011;13482;48.234;13.006;2023-04-03T00:45:51;3.22;;;1.80;;
25615;SDS011;13482;48.234;13.006;2023-04-03T00:48:23;2.35;;;1.67;;
25615;SDS011;13482;48.234;13.006;2023-04-03T00:50:55;2.78;;;1.58;;
25615;SDS011;13482;48.234;13.006;2023-04-03T00:53:31;1.98;;;1.45;;
25615;SDS011;13482;48.234;13.006;2023-04-03T00:56:06;1.80;;;1.33;;
25615;SDS011;13482;48.234;13.006;2023-04-03T00:58:38;2.10;;;1.50;;
25615;SDS011;13482;48.234;13.006;2023-04-03T01:01:12;2.30;;;1.48;;
25615;SDS011;13482;48.234;13.006;2023-04-03T01:03:44;2.35;;;1.65;;
25615;SDS011;13482;48.234;13.006;2023-04-03T01:06:12;1.80;;;1.40;;
25615;SDS011;13482;48.234;13.006;2023-04-03T01:08:42;1.83;;;1.35;;
25615;SDS011;13482;48.234;13.006;2023-04-03T01:11:10;3.70;;;1.30;;
25615;SDS011;13482;48.234;13.006;2023-04-03T01:13:37;2.33;;;1.58;;
25615;SDS011;13482;48.234;13.006;2023-04-03T01:16:05;2.00;;;1.38;;
25615;SDS011;13482;48.234;13.006;2023-04-03T01:18:34;2.22;;;1.60;;
25615;SDS011;13482;48.234;13.006;2023-04-03T01:23:38;1.90;;;1.25;;
25615;SDS011;13482;48.234;13.006;2023-04-03T01:26:27;1.95;;;1.17;;
25615;SDS011;13482;48.234;13.006;2023-04-03T01:28:55;2.10;;;1.52;;
25615;SDS011;13482;48.234;13.006;2023-04-03T01:34:19;1.50;;;1.20;;
25615;SDS011;13482;48.234;13.006;2023-04-03T01:36:47;2.35;;;1.23;;
25615;SDS011;13482;48.234;13.006;2023-04-03T01:39:15;2.00;;;1.30;;
25615;SDS011;13482;48.234;13.006;2023-04-03T01:41:42;2.15;;;1.45;;
25615;SDS011;13482;48.234;13.006;2023-04-03T01:44:10;2.67;;;1.60;;
25615;SDS011;13482;48.234;13.006;2023-04-03T01:46:37;2.25;;;1.48;;
25615;SDS011;13482;48.234;13.006;2023-04-03T01:49:04;1.95;;;1.33;;
25615;SDS011;13482;48.234;13.006;2023-04-03T01:51:31;1.70;;;1.23;;
25615;SDS011;13482;48.234;13.006;2023-04-03T01:53:59;3.47;;;1.48;;
25615;SDS011;13482;48.234;13.006;2023-04-03T01:56:26;2.00;;;1.40;;
25615;SDS011;13482;48.234;13.006;2023-04-03T01:58:56;2.85;;;1.30;;
25615;SDS011;13482;48.234;13.006;2023-04-03T02:01:23;2.08;;;1.40;;
25615;SDS011;13482;48.234;13.006;2023-04-03T02:03:52;1.83;;;1.30;;
25615;SDS011;13482;48.234;13.006;2023-04-03T02:06:19;2.10;;;1.30;;
25615;SDS011;13482;48.234;13.006;2023-04-03T02:08:46;2.17;;;1.30;;
25615;SDS011;13482;48.234;13.006;2023-04-03T02:11:13;2.13;;;1.30;;
25615;SDS011;13482;48.234;13.006;2023-04-03T02:13:41;1.60;;;1.20;;
25615;SDS011;13482;48.234;13.006;2023-04-03T02:16:08;2.35;;;1.42;;
25615;SDS011;13482;48.234;13.006;2023-04-03T02:18:37;2.00;;;1.20;;
25615;SDS011;13482;48.234;13.006;2023-04-03T02:21:05;2.00;;;1.38;;
25615;SDS011;13482;48.234;13.006;2023-04-03T02:23:32;2.42;;;1.75;;
25615;SDS011;13482;48.234;13.006;2023-04-03T02:26:03;2.00;;;1.30;;
25615;SDS011;13482;48.234;13.006;2023-04-03T02:28:37;2.92;;;1.63;;
25615;SDS011;13482;48.234;13.006;2023-04-03T02:31:05;1.83;;;1.30;;
25615;SDS011;13482;48.234;13.006;2023-04-03T02:33:33;2.50;;;1.48;;
25615;SDS011;13482;48.234;13.006;2023-04-03T02:36:03;2.40;;;1.20;;
25615;SDS011;13482;48.234;13.006;2023-04-03T02:38:32;2.00;;;1.40;;
25615;SDS011;13482;48.234;13.006;2023-04-03T02:41:03;1.67;;;1.27;;
25615;SDS011;13482;48.234;13.006;2023-04-03T02:43:32;1.80;;;1.35;;
25615;SDS011;13482;48.234;13.006;2023-04-03T02:46:00;3.15;;;1.70;;
25615;SDS011;13482;48.234;13.006;2023-04-03T02:48:27;1.83;;;1.30;;
25615;SDS011;13482;48.234;13.006;2023-04-03T02:50:55;2.65;;;1.30;;
25615;SDS011;13482;48.234;13.006;2023-04-03T02:53:22;1.65;;;1.15;;
25615;SDS011;13482;48.234;13.006;2023-04-03T02:55:49;2.10;;;1.20;;
25615;SDS011;13482;48.234;13.006;2023-04-03T02:58:17;1.80;;;1.30;;
25615;SDS011;13482;48.234;13.006;2023-04-03T03:00:44;2.20;;;1.42;;
25615;SDS011;13482;48.234;13.006;2023-04-03T03:03:11;1.90;;;1.23;;
25615;SDS011;13482;48.234;13.006;2023-04-03T03:05:40;1.98;;;1.27;;
25615;SDS011;13482;48.234;13.006;2023-04-03T03:08:07;2.00;;;1.50;;
25615;SDS011;13482;48.234;13.006;2023-04-03T03:10:34;2.05;;;1.38;;
25615;SDS011;13482;48.234;13.006;2023-04-03T03:13:02;1.90;;;1.20;;
25615;SDS011;13482;48.234;13.006;2023-04-03T03:15:29;1.70;;;1.30;;
25615;SDS011;13482;48.234;13.006;2023-04-03T03:17:56;2.17;;;1.35;;
25615;SDS011;13482;48.234;13.006;2023-04-03T03:20:23;1.90;;;1.35;;
25615;SDS011;13482;48.234;13.006;2023-04-03T03:22:50;2.00;;;1.38;;
25615;SDS011;13482;48.234;13.006;2023-04-03T03:25:17;2.22;;;1.58;;
25615;SDS011;13482;48.234;13.006;2023-04-03T03:27:45;2.47;;;1.60;;
25615;SDS011;13482;48.234;13.006;2023-04-03T03:30:12;2.15;;;1.40;;
25615;SDS011;13482;48.234;13.006;2023-04-03T03:32:39;2.10;;;1.30;;
25615;SDS011;13482;48.234;13.006;2023-04-03T03:35:06;2.15;;;1.40;;
25615;SDS011;13482;48.234;13.006;2023-04-03T03:37:34;1.80;;;1.20;;
25615;SDS011;13482;48.234;13.006;2023-04-03T03:40:01;2.13;;;1.20;;
25615;SDS011;13482;48.234;13.006;2023-04-03T03:42:29;1.45;;;1.10;;
25615;SDS011;13482;48.234;13.006;2023-04-03T03:44:56;1.83;;;1.33;;
25615;SDS011;13482;48.234;13.006;2023-04-03T03:47:23;1.65;;;1.20;;
25615;SDS011;13482;48.234;13.006;2023-04-03T03:49:50;2.40;;;1.40;;
25615;SDS011;13482;48.234;13.006;2023-04-03T03:52:18;2.15;;;1.30;;
25615;SDS011;13482;48.234;13.006;2023-04-03T03:54:45;1.70;;;1.13;;
25615;SDS011;13482;48.234;13.006;2023-04-03T03:57:12;1.67;;;1.10;;
25615;SDS011;13482;48.234;13.006;2023-04-03T03:59:39;2.20;;;1.40;;
25615;SDS011;13482;48.234;13.006;2023-04-03T04:02:07;2.30;;;1.42;;
25615;SDS011;13482;48.234;13.006;2023-04-03T04:04:34;2.03;;;1.40;;
25615;SDS011;13482;48.234;13.006;2023-04-03T04:07:02;1.88;;;1.30;;
25615;SDS011;13482;48.234;13.006;2023-04-03T04:09:29;1.92;;;1.33;;
25615;SDS011;13482;48.234;13.006;2023-04-03T04:11:57;1.67;;;1.35;;
25615;SDS011;13482;48.234;13.006;2023-04-03T04:14:24;2.00;;;1.30;;
25615;SDS011;13482;48.234;13.006;2023-04-03T04:16:51;1.70;;;1.20;;
25615;SDS011;13482;48.234;13.006;2023-04-03T04:19:18;2.50;;;1.13;;
25615;SDS011;13482;48.234;13.006;2023-04-03T04:21:45;3.42;;;1.40;;
25615;SDS011;13482;48.234;13.006;2023-04-03T04:24:12;1.85;;;1.38;;
25615;SDS011;13482;48.234;13.006;2023-04-03T04:26:40;2.03;;;1.40;;
25615;SDS011;13482;48.234;13.006;2023-04-03T04:29:08;2.10;;;1.40;;
25615;SDS011;13482;48.234;13.006;2023-04-03T04:31:36;2.25;;;1.33;;
25615;SDS011;13482;48.234;13.006;2023-04-03T04:34:03;2.20;;;1.50;;
25615;SDS011;13482;48.234;13.006;2023-04-03T04:36:30;2.25;;;1.50;;
25615;SDS011;13482;48.234;13.006;2023-04-03T04:38:58;1.50;;;1.25;;
25615;SDS011;13482;48.234;13.006;2023-04-03T04:41:25;1.83;;;1.40;;
25615;SDS011;13482;48.234;13.006;2023-04-03T04:43:52;1.92;;;1.30;;
25615;SDS011;13482;48.234;13.006;2023-04-03T04:46:19;2.03;;;1.48;;
25615;SDS011;13482;48.234;13.006;2023-04-03T04:48:46;1.90;;;1.50;;
25615;SDS011;13482;48.234;13.006;2023-04-03T04:51:14;1.67;;;1.35;;
25615;SDS011;13482;48.234;13.006;2023-04-03T04:53:42;2.10;;;1.50;;
25615;SDS011;13482;48.234;13.006;2023-04-03T04:56:09;2.25;;;1.52;;
25615;SDS011;13482;48.234;13.006;2023-04-03T04:58:36;2.85;;;2.10;;
25615;SDS011;13482;48.234;13.006;2023-04-03T05:01:05;3.92;;;2.00;;
25615;SDS011;13482;48.234;13.006;2023-04-03T05:03:34;2.50;;;1.80;;
25615;SDS011;13482;48.234;13.006;2023-04-03T05:06:02;2.47;;;1.73;;
25615;SDS011;13482;48.234;13.006;2023-04-03T05:08:29;2.60;;;1.48;;
25615;SDS011;13482;48.234;13.006;2023-04-03T05:10:57;2.10;;;1.60;;
25615;SDS011;13482;48.234;13.006;2023-04-03T05:13:24;2.72;;;1.60;;
25615;SDS011;13482;48.234;13.006;2023-04-03T05:15:51;2.30;;;1.52;;
25615;SDS011;13482;48.234;13.006;2023-04-03T05:18:18;2.30;;;1.48;;
25615;SDS011;13482;48.234;13.006;2023-04-03T05:20:48;2.30;;;1.42;;
25615;SDS011;13482;48.234;13.006;2023-04-03T05:23:16;2.40;;;1.70;;
25615;SDS011;13482;48.234;13.006;2023-04-03T05:25:44;2.42;;;1.67;;
25615;SDS011;13482;48.234;13.006;2023-04-03T05:28:13;1.60;;;1.20;;
25615;SDS011;13482;48.234;13.006;2023-04-03T05:30:40;2.33;;;1.63;;
25615;SDS011;13482;48.234;13.006;2023-04-03T05:33:08;2.20;;;1.38;;
25615;SDS011;13482;48.234;13.006;2023-04-03T05:35:35;2.40;;;1.48;;
25615;SDS011;13482;48.234;13.006;2023-04-03T05:38:08;2.70;;;1.52;;
25615;SDS011;13482;48.234;13.006;2023-04-03T05:40:35;1.75;;;1.30;;
25615;SDS011;13482;48.234;13.006;2023-04-03T05:43:02;1.85;;;1.33;;
25615;SDS011;13482;48.234;13.006;2023-04-03T05:45:29;2.15;;;1.50;;
25615;SDS011;13482;48.234;13.006;2023-04-03T05:47:56;1.92;;;1.40;;
25615;SDS011;13482;48.234;13.006;2023-04-03T05:50:24;2.10;;;1.30;;
25615;SDS011;13482;48.234;13.006;2023-04-03T05:52:51;1.95;;;1.20;;
25615;SDS011;13482;48.234;13.006;2023-04-03T05:55:21;2.10;;;1.30;;
25615;SDS011;13482;48.234;13.006;2023-04-03T05:57:48;2.10;;;1.30;;
25615;SDS011;13482;48.234;13.006;2023-04-03T06:00:16;2.30;;;1.60;;
25615;SDS011;13482;48.234;13.006;2023-04-03T06:02:44;2.13;;;1.42;;
25615;SDS011;13482;48.234;13.006;2023-04-03T06:05:11;2.67;;;1.58;;
25615;SDS011;13482;48.234;13.006;2023-04-03T06:07:39;1.83;;;1.23;;
25615;SDS011;13482;48.234;13.006;2023-04-03T06:10:07;1.73;;;1.30;;
25615;SDS011;13482;48.234;13.006;2023-04-03T06:12:35;2.00;;;1.48;;
25615;SDS011;13482;48.234;13.006;2023-04-03T06:15:02;2.40;;;1.58;;
25615;SDS011;13482;48.234;13.006;2023-04-03T06:17:30;2.10;;;1.48;;
25615;SDS011;13482;48.234;13.006;2023-04-03T06:19:57;2.03;;;1.40;;
25615;SDS011;13482;48.234;13.006;2023-04-03T06:22:24;2.50;;;1.50;;
25615;SDS011;13482;48.234;13.006;2023-04-03T06:24:52;2.60;;;1.42;;
25615;SDS011;13482;48.234;13.006;2023-04-03T06:27:19;1.95;;;1.35;;
25615;SDS011;13482;48.234;13.006;2023-04-03T06:29:46;1.98;;;1.55;;
25615;SDS011;13482;48.234;13.006;2023-04-03T06:32:15;2.15;;;1.50;;
25615;SDS011;13482;48.234;13.006;2023-04-03T06:34:43;2.42;;;1.38;;
25615;SDS011;13482;48.234;13.006;2023-04-03T06:37:11;2.05;;;1.45;;
25615;SDS011;13482;48.234;13.006;2023-04-03T06:39:43;2.42;;;1.55;;
25615;SDS011;13482;48.234;13.006;2023-04-03T06:42:11;2.67;;;1.77;;
25615;SDS011;13482;48.234;13.006;2023-04-03T06:44:39;2.50;;;1.30;;
25615;SDS011;13482;48.234;13.006;2023-04-03T06:47:08;1.95;;;1.35;;
25615;SDS011;13482;48.234;13.006;2023-04-03T06:52:05;2.33;;;1.13;;
25615;SDS011;13482;48.234;13.006;2023-04-03T06:54:33;2.25;;;1.38;;
25615;SDS011;13482;48.234;13.006;2023-04-03T06:57:00;1.73;;;1.25;;
25615;SDS011;13482;48.234;13.006;2023-04-03T06:59:28;2.70;;;1.55;;
25615;SDS011;13482;48.234;13.006;2023-04-03T07:01:55;2.35;;;1.50;;
25615;SDS011;13482;48.234;13.006;2023-04-03T07:04:22;2.55;;;1.58;;
25615;SDS011;13482;48.234;13.006;2023-04-03T07:06:50;2.13;;;1.45;;
25615;SDS011;13482;48.234;13.006;2023-04-03T07:09:18;2.00;;;1.45;;
25615;SDS011;13482;48.234;13.006;2023-04-03T07:11:46;1.95;;;1.45;;
25615;SDS011;13482;48.234;13.006;2023-04-03T07:14:13;2.05;;;1.50;;
25615;SDS011;13482;48.234;13.006;2023-04-03T07:16:40;1.88;;;1.17;;
25615;SDS011;13482;48.234;13.006;2023-04-03T07:19:08;2.28;;;1.50;;
25615;SDS011;13482;48.234;13.006;2023-04-03T07:21:36;2.47;;;1.50;;
25615;SDS011;13482;48.234;13.006;2023-04-03T07:24:03;2.58;;;1.70;;
25615;SDS011;13482;48.234;13.006;2023-04-03T07:26:30;2.72;;;1.58;;
25615;SDS011;13482;48.234;13.006;2023-04-03T07:28:58;2.22;;;1.60;;
25615;SDS011;13482;48.234;13.006;2023-04-03T07:31:25;3.08;;;1.40;;
25615;SDS011;13482;48.234;13.006;2023-04-03T07:33:53;2.33;;;1.52;;
25615;SDS011;13482;48.234;13.006;2023-04-03T07:36:21;2.28;;;1.60;;
25615;SDS011;13482;48.234;13.006;2023-04-03T07:38:49;3.10;;;1.55;;
25615;SDS011;13482;48.234;13.006;2023-04-03T07:41:17;2.22;;;1.60;;
25615;SDS011;13482;48.234;13.006;2023-04-03T07:43:46;2.55;;;1.58;;
25615;SDS011;13482;48.234;13.006;2023-04-03T07:46:13;2.03;;;1.52;;
25615;SDS011;13482;48.234;13.006;2023-04-03T07:48:40;2.38;;;1.52;;
25615;SDS011;13482;48.234;13.006;2023-04-03T07:51:09;2.00;;;1.60;;
25615;SDS011;13482;48.234;13.006;2023-04-03T07:53:36;2.28;;;1.45;;
25615;SDS011;13482;48.234;13.006;2023-04-03T07:56:04;2.10;;;1.50;;
25615;SDS011;13482;48.234;13.006;2023-04-03T07:58:31;2.65;;;1.52;;
25615;SDS011;13482;48.234;13.006;2023-04-03T08:00:59;2.28;;;1.63;;
25615;SDS011;13482;48.234;13.006;2023-04-03T08:03:26;3.03;;;1.60;;
25615;SDS011;13482;48.234;13.006;2023-04-03T08:05:54;2.38;;;1.60;;
25615;SDS011;13482;48.234;13.006;2023-04-03T08:08:21;2.53;;;1.60;;
25615;SDS011;13482;48.234;13.006;2023-04-03T08:10:53;2.85;;;1.45;;
25615;SDS011;13482;48.234;13.006;2023-04-03T08:13:21;1.38;;;1.13;;
25615;SDS011;13482;48.234;13.006;2023-04-03T08:15:49;2.60;;;1.30;;
25615;SDS011;13482;48.234;13.006;2023-04-03T08:18:17;1.95;;;1.23;;
25615;SDS011;13482;48.234;13.006;2023-04-03T08:20:47;2.30;;;1.43;;
25615;SDS011;13482;48.234;13.006;2023-04-03T08:23:15;2.00;;;1.40;;
25615;SDS011;13482;48.234;13.006;2023-04-03T08:25:45;2.60;;;1.27;;
25615;SDS011;13482;48.234;13.006;2023-04-03T08:28:12;2.25;;;1.60;;
25615;SDS011;13482;48.234;13.006;2023-04-03T08:30:40;2.25;;;1.40;;
25615;SDS011;13482;48.234;13.006;2023-04-03T08:33:08;2.10;;;1.30;;
25615;SDS011;13482;48.234;13.006;2023-04-03T08:35:40;3.45;;;1.30;;
25615;SDS011;13482;48.234;13.006;2023-04-03T08:38:09;2.03;;;1.48;;
25615;SDS011;13482;48.234;13.006;2023-04-03T08:40:37;2.10;;;1.40;;
25615;SDS011;13482;48.234;13.006;2023-04-03T08:43:16;2.15;;;1.25;;
25615;SDS011;13482;48.234;13.006;2023-04-03T08:46:33;1.73;;;1.30;;
25615;SDS011;13482;48.234;13.006;2023-04-03T08:49:51;2.00;;;1.23;;
25615;SDS011;13482;48.234;13.006;2023-04-03T08:52:05;1.77;;;1.17;;
25615;SDS011;13482;48.234;13.006;2023-04-03T08:54:52;2.00;;;1.05;;
25615;SDS011;13482;48.234;13.006;2023-04-03T08:57:30;2.35;;;1.33;;
25615;SDS011;13482;48.234;13.006;2023-04-03T09:00:06;1.65;;;1.15;;
25615;SDS011;13482;48.234;13.006;2023-04-03T09:02:45;1.67;;;1.10;;
25615;SDS011;13482;48.234;13.006;2023-04-03T09:05:19;1.90;;;1.10;;
25615;SDS011;13482;48.234;13.006;2023-04-03T09:10:55;2.95;;;1.10;;
25615;SDS011;13482;48.234;13.006;2023-04-03T09:13:44;2.20;;;1.08;;
25615;SDS011;13482;48.234;13.006;2023-04-03T09:16:54;1.73;;;0.95;;
25615;SDS011;13482;48.234;13.006;2023-04-03T09:24:58;2.42;;;1.08;;
25615;SDS011;13482;48.234;13.006;2023-04-03T09:27:51;1.45;;;0.95;;
25615;SDS011;13482;48.234;13.006;2023-04-03T09:30:23;2.45;;;1.10;;
25615;SDS011;13482;48.234;13.006;2023-04-03T09:32:52;2.13;;;1.02;;
25615;SDS011;13482;48.234;13.006;2023-04-03T09:35:29;2.03;;;1.08;;
25615;SDS011;13482;48.234;13.006;2023-04-03T09:40:44;2.05;;;1.23;;
25615;SDS011;13482;48.234;13.006;2023-04-03T09:43:23;2.10;;;1.23;;
25615;SDS011;13482;48.234;13.006;2023-04-03T09:46:15;1.87;;;1.23;;
25615;SDS011;13482;48.234;13.006;2023-04-03T09:49:00;1.60;;;1.08;;
25615;SDS011;13482;48.234;13.006;2023-04-03T09:51:35;2.22;;;1.23;;
25615;SDS011;13482;48.234;13.006;2023-04-03T09:54:24;2.30;;;1.48;;
25615;SDS011;13482;48.234;13.006;2023-04-03T09:57:06;3.83;;;1.33;;
25615;SDS011;13482;48.234;13.006;2023-04-03T09:59:41;2.22;;;1.20;;
25615;SDS011;13482;48.234;13.006;2023-04-03T10:02:32;1.42;;;0.98;;
25615;SDS011;13482;48.234;13.006;2023-04-03T10:05:25;2.60;;;1.13;;
25615;SDS011;13482;48.234;13.006;2023-04-03T10:10:45;2.30;;;1.00;;
25615;SDS011;13482;48.234;13.006;2023-04-03T10:13:15;1.92;;;1.00;;
25615;SDS011;13482;48.234;13.006;2023-04-03T10:15:51;2.85;;;1.40;;
25615;SDS011;13482;48.234;13.006;2023-04-03T10:18:32;2.17;;;1.08;;
25615;SDS011;13482;48.234;13.006;2023-04-03T10:21:35;1.75;;;0.75;;
25615;SDS011;13482;48.234;13.006;2023-04-03T10:24:10;1.88;;;0.95;;
25615;SDS011;13482;48.234;13.006;2023-04-03T10:26:44;2.20;;;1.00;;
25615;SDS011;13482;48.234;13.006;2023-04-03T10:32:15;2.13;;;1.00;;
25615;SDS011;13482;48.234;13.006;2023-04-03T10:34:50;1.88;;;0.90;;
25615;SDS011;13482;48.234;13.006;2023-04-03T10:40:41;1.85;;;0.73;;
25615;SDS011;13482;48.234;13.006;2023-04-03T10:49:15;1.50;;;0.98;;
25615;SDS011;13482;48.234;13.006;2023-04-03T10:53:16;1.33;;;0.70;;
25615;SDS011;13482;48.234;13.006;2023-04-03T10:58:40;1.83;;;0.75;;
25615;SDS011;13482;48.234;13.006;2023-04-03T11:01:13;1.52;;;0.60;;
25615;SDS011;13482;48.234;13.006;2023-04-03T11:03:49;1.75;;;0.80;;
25615;SDS011;13482;48.234;13.006;2023-04-03T11:06:23;1.63;;;0.73;;
25615;SDS011;13482;48.234;13.006;2023-04-03T11:09:02;1.52;;;0.70;;
25615;SDS011;13482;48.234;13.006;2023-04-03T11:11:48;1.23;;;0.50;;
25615;SDS011;13482;48.234;13.006;2023-04-03T11:14:28;1.27;;;0.60;;
25615;SDS011;13482;48.234;13.006;2023-04-03T11:17:06;0.80;;;0.50;;
25615;SDS011;13482;48.234;13.006;2023-04-03T11:22:45;1.35;;;0.70;;
25615;SDS011;13482;48.234;13.006;2023-04-03T11:25:20;1.53;;;0.83;;
25615;SDS011;13482;48.234;13.006;2023-04-03T11:30:33;0.73;;;0.43;;
25615;SDS011;13482;48.234;13.006;2023-04-03T11:33:36;1.70;;;0.55;;
25615;SDS011;13482;48.234;13.006;2023-04-03T11:36:45;0.73;;;0.30;;
25615;SDS011;13482;48.234;13.006;2023-04-03T11:42:16;1.13;;;0.55;;
25615;SDS011;13482;48.234;13.006;2023-04-03T11:50:43;4.50;;;0.85;;
25615;SDS011;13482;48.234;13.006;2023-04-03T12:01:45;0.85;;;0.50;;
25615;SDS011;13482;48.234;13.006;2023-04-03T12:04:16;1.30;;;0.68;;
25615;SDS011;13482;48.234;13.006;2023-04-03T12:09:23;1.33;;;0.65;;
25615;SDS011;13482;48.234;13.006;2023-04-03T12:11:51;1.10;;;0.50;;
25615;SDS011;13482;48.234;13.006;2023-04-03T12:14:19;1.42;;;0.70;;
25615;SDS011;13482;48.234;13.006;2023-04-03T12:16:52;1.70;;;0.70;;
25615;SDS011;13482;48.234;13.006;2023-04-03T12:19:29;1.52;;;0.80;;
25615;SDS011;13482;48.234;13.006;2023-04-03T12:22:10;1.27;;;0.50;;
25615;SDS011;13482;48.234;13.006;2023-04-03T12:24:45;1.35;;;0.68;;
25615;SDS011;13482;48.234;13.006;2023-04-03T12:27:23;1.75;;;0.73;;
25615;SDS011;13482;48.234;13.006;2023-04-03T12:32:45;1.35;;;0.60;;
25615;SDS011;13482;48.234;13.006;2023-04-03T12:35:43;0.73;;;0.50;;
25615;SDS011;13482;48.234;13.006;2023-04-03T12:47:54;1.20;;;0.70;;
25615;SDS011;13482;48.234;13.006;2023-04-03T12:50:30;1.98;;;1.02;;
25615;SDS011;13482;48.234;13.006;2023-04-03T12:52:59;1.90;;;0.80;;
25615;SDS011;13482;48.234;13.006;2023-04-03T12:55:38;1.08;;;0.60;;
25615;SDS011;13482;48.234;13.006;2023-04-03T12:58:15;1.73;;;0.70;;
25615;SDS011;13482;48.234;13.006;2023-04-03T13:01:37;1.17;;;0.45;;
25615;SDS011;13482;48.234;13.006;2023-04-03T13:03:57;1.23;;;0.55;;
25615;SDS011;13482;48.234;13.006;2023-04-03T13:06:30;1.00;;;0.50;;
25615;SDS011;13482;48.234;13.006;2023-04-03T13:09:06;1.40;;;0.63;;
25615;SDS011;13482;48.234;13.006;2023-04-03T13:11:58;1.52;;;0.57;;
25615;SDS011;13482;48.234;13.006;2023-04-03T13:14:39;1.00;;;0.43;;
25615;SDS011;13482;48.234;13.006;2023-04-03T13:17:12;1.13;;;0.60;;
25615;SDS011;13482;48.234;13.006;2023-04-03T13:19:41;1.45;;;0.68;;
25615;SDS011;13482;48.234;13.006;2023-04-03T13:22:55;1.70;;;0.60;;
25615;SDS011;13482;48.234;13.006;2023-04-03T13:25:11;1.20;;;0.60;;
25615;SDS011;13482;48.234;13.006;2023-04-03T13:27:41;1.25;;;0.50;;
25615;SDS011;13482;48.234;13.006;2023-04-03T13:30:53;1.52;;;0.70;;
25615;SDS011;13482;48.234;13.006;2023-04-03T13:33:17;1.85;;;0.50;;
25615;SDS011;13482;48.234;13.006;2023-04-03T13:35:54;1.48;;;0.65;;
25615;SDS011;13482;48.234;13.006;2023-04-03T13:38:32;0.98;;;0.50;;
25615;SDS011;13482;48.234;13.006;2023-04-03T13:41:04;1.10;;;0.60;;
25615;SDS011;13482;48.234;13.006;2023-04-03T13:43:49;1.73;;;0.65;;
25615;SDS011;13482;48.234;13.006;2023-04-03T13:46:24;1.23;;;0.60;;
25615;SDS011;13482;48.234;13.006;2023-04-03T13:48:55;0.77;;;0.50;;
25615;SDS011;13482;48.234;13.006;2023-04-03T13:53:57;1.15;;;0.60;;
25615;SDS011;13482;48.234;13.006;2023-04-03T13:56:43;1.13;;;0.57;;
25615;SDS011;13482;48.234;13.006;2023-04-03T14:01:44;1.40;;;0.70;;
25615;SDS011;13482;48.234;13.006;2023-04-03T14:04:53;1.92;;;0.70;;
25615;SDS011;13482;48.234;13.006;2023-04-03T14:07:26;0.88;;;0.50;;
25615;SDS011;13482;48.234;13.006;2023-04-03T14:09:55;1.20;;;0.70;;
25615;SDS011;13482;48.234;13.006;2023-04-03T14:15:05;1.53;;;0.60;;
25615;SDS011;13482;48.234;13.006;2023-04-03T14:17:44;1.33;;;0.70;;
25615;SDS011;13482;48.234;13.006;2023-04-03T14:20:20;1.63;;;0.82;;
25615;SDS011;13482;48.234;13.006;2023-04-03T14:22:51;0.98;;;0.47;;
25615;SDS011;13482;48.234;13.006;2023-04-03T14:25:20;1.30;;;0.80;;
25615;SDS011;13482;48.234;13.006;2023-04-03T14:27:50;1.67;;;0.80;;
25615;SDS011;13482;48.234;13.006;2023-04-03T14:30:30;2.72;;;0.80;;
25615;SDS011;13482;48.234;13.006;2023-04-03T14:32:59;2.10;;;1.00;;
25615;SDS011;13482;48.234;13.006;2023-04-03T14:35:28;1.10;;;0.55;;
25615;SDS011;13482;48.234;13.006;2023-04-03T14:37:56;1.25;;;0.75;;
25615;SDS011;13482;48.234;13.006;2023-04-03T14:40:24;1.35;;;0.60;;
25615;SDS011;13482;48.234;13.006;2023-04-03T14:42:53;1.35;;;0.68;;
25615;SDS011;13482;48.234;13.006;2023-04-03T14:45:22;1.00;;;0.63;;
25615;SDS011;13482;48.234;13.006;2023-04-03T14:47:52;0.90;;;0.50;;
25615;SDS011;13482;48.234;13.006;2023-04-03T14:50:22;2.22;;;0.80;;
25615;SDS011;13482;48.234;13.006;2023-04-03T14:52:53;1.23;;;0.80;;
25615;SDS011;13482;48.234;13.006;2023-04-03T14:55:24;1.05;;;0.63;;
25615;SDS011;13482;48.234;13.006;2023-04-03T14:57:52;1.77;;;0.70;;
25615;SDS011;13482;48.234;13.006;2023-04-03T15:00:20;1.60;;;0.80;;
25615;SDS011;13482;48.234;13.006;2023-04-03T15:02:49;1.20;;;0.70;;
25615;SDS011;13482;48.234;13.006;2023-04-03T15:05:16;1.70;;;0.60;;
25615;SDS011;13482;48.234;13.006;2023-04-03T15:07:50;2.38;;;0.80;;
25615;SDS011;13482;48.234;13.006;2023-04-03T15:10:25;1.85;;;0.80;;
25615;SDS011;13482;48.234;13.006;2023-04-03T15:12:55;1.50;;;0.75;;
25615;SDS011;13482;48.234;13.006;2023-04-03T15:15:23;1.40;;;0.70;;
25615;SDS011;13482;48.234;13.006;2023-04-03T15:17:52;1.50;;;0.85;;
25615;SDS011;13482;48.234;13.006;2023-04-03T15:20:23;1.73;;;0.95;;
25615;SDS011;13482;48.234;13.006;2023-04-03T15:22:53;1.63;;;0.80;;
25615;SDS011;13482;48.234;13.006;2023-04-03T15:25:23;1.58;;;0.80;;
25615;SDS011;13482;48.234;13.006;2023-04-03T15:27:52;1.45;;;0.70;;
25615;SDS011;13482;48.234;13.006;2023-04-03T15:30:21;1.33;;;0.70;;
25615;SDS011;13482;48.234;13.006;2023-04-03T15:32:48;1.40;;;0.70;;
25615;SDS011;13482;48.234;13.006;2023-04-03T15:35:16;1.70;;;0.88;;
25615;SDS011;13482;48.234;13.006;2023-04-03T15:37:44;1.27;;;0.80;;
25615;SDS011;13482;48.234;13.006;2023-04-03T15:40:11;1.50;;;0.80;;
25615;SDS011;13482;48.234;13.006;2023-04-03T15:42:39;1.85;;;1.02;;
25615;SDS011;13482;48.234;13.006;2023-04-03T15:45:07;1.73;;;0.70;;
25615;SDS011;13482;48.234;13.006;2023-04-03T15:47:35;1.05;;;0.60;;
25615;SDS011;13482;48.234;13.006;2023-04-03T15:50:02;1.20;;;0.65;;
25615;SDS011;13482;48.234;13.006;2023-04-03T15:52:32;1.75;;;0.90;;
25615;SDS011;13482;48.234;13.006;2023-04-03T15:54:59;1.08;;;0.70;;
25615;SDS011;13482;48.234;13.006;2023-04-03T15:57:26;2.00;;;1.13;;
25615;SDS011;13482;48.234;13.006;2023-04-03T15:59:54;1.17;;;0.52;;
25615;SDS011;13482;48.234;13.006;2023-04-03T16:02:22;1.40;;;0.90;;
25615;SDS011;13482;48.234;13.006;2023-04-03T16:04:50;1.15;;;0.80;;
25615;SDS011;13482;48.234;13.006;2023-04-03T16:07:17;2.58;;;0.80;;
25615;SDS011;13482;48.234;13.006;2023-04-03T16:09:44;1.38;;;0.73;;
25615;SDS011;13482;48.234;13.006;2023-04-03T16:12:11;1.13;;;0.73;;
25615;SDS011;13482;48.234;13.006;2023-04-03T16:14:38;2.03;;;0.90;;
25615;SDS011;13482;48.234;13.006;2023-04-03T16:17:06;3.25;;;1.30;;
25615;SDS011;13482;48.234;13.006;2023-04-03T16:19:33;1.50;;;0.90;;
25615;SDS011;13482;48.234;13.006;2023-04-03T16:22:00;2.50;;;0.90;;